Muir Army Air Field (Fort Indiantown Gap) Airport Fort Indiantown Gap(Annville) US
ICAO: KMUI
IATA: MUI
Category: Medium
Scheduled Services: No

Elevation: 488 ft
TransAlt. 18000 ft.

Airport Communications:
HARRISBURG APP/DEP:118.25
CTAF:126.2
GND:121.625
FLT FLW:40.9
ARNG OPS:49.95
TWR:126.2

KMUI Zoom In..

If you have problems with the map follow the link
https://www.worldairports.se/pages/airport.php?
ICAO=KMUI

Runways:

(A) RW 07 length 3978 ft width 98 ft
---- / hdg 70

(B) RW 25 length 3978 ft width 98 ft
---- / hdg 250

Location; KMUI
Day. 13 / Time. 11.56 Zulu
* Altimeter: 30.38
* Temperature: 00° c. 32°f.
* Wind from: 000° Speed 00 kn.
Dewpoint: -06° c.
Visibility: 10 Statute Miles.
Clouds: Overcast 2200 ft.

KMUI 131156Z AUTO 00000KT 10SM OVC022 00/M06 A3038 RMK AO2 SLP297 T10051059 11005 21021 57025


Wind - Calm.

 
 
jpsmedia worldairports.se 2019   terms of use